createdAt,value
2023-07-29T00:01:43.606Z,1.77
2023-07-29T00:04:10.600Z,1.73
2023-07-29T00:06:37.825Z,2.83
2023-07-29T00:09:04.832Z,1.80
2023-07-29T00:11:33.723Z,2.13
2023-07-29T00:14:03.375Z,2.15
2023-07-29T00:16:30.124Z,1.50
2023-07-29T00:18:56.788Z,1.17
2023-07-29T00:21:23.578Z,1.08
2023-07-29T00:23:50.316Z,1.50
2023-07-29T00:26:17.061Z,1.90
2023-07-29T00:28:43.920Z,1.20
2023-07-29T00:31:10.628Z,2.15
2023-07-29T00:33:37.233Z,1.33
2023-07-29T00:36:04.169Z,1.85
2023-07-29T00:38:30.924Z,1.88
2023-07-29T00:41:03.257Z,1.38
2023-07-29T00:43:30.627Z,1.63
2023-07-29T00:45:58.792Z,1.85
2023-07-29T00:48:26.780Z,1.63
2023-07-29T00:50:54.228Z,1.55
2023-07-29T00:53:21.085Z,1.70
2023-07-29T00:55:47.827Z,1.67
2023-07-29T00:58:15.755Z,1.73
2023-07-29T01:00:42.888Z,1.85
2023-07-29T01:03:09.690Z,1.98
2023-07-29T01:06:14.013Z,4.13
2023-07-29T01:08:46.518Z,1.50
2023-07-29T01:14:06.939Z,0.80
2023-07-29T01:16:42.978Z,1.52
2023-07-29T01:19:21.929Z,1.35
2023-07-29T01:21:48.902Z,1.92
2023-07-29T01:24:15.526Z,1.50
2023-07-29T01:26:42.242Z,1.25
2023-07-29T01:29:08.972Z,1.77
2023-07-29T01:31:42.222Z,2.10
2023-07-29T01:34:16.761Z,1.85
2023-07-29T01:36:47.907Z,2.10
2023-07-29T01:39:17.494Z,2.75
2023-07-29T01:41:46.717Z,2.08
2023-07-29T01:44:14.399Z,2.13
2023-07-29T01:46:41.801Z,1.63
2023-07-29T01:49:08.667Z,2.65
2023-07-29T01:51:35.404Z,2.00
2023-07-29T01:54:02.243Z,1.80
2023-07-29T01:56:29.073Z,1.55
2023-07-29T01:58:55.829Z,2.80
2023-07-29T02:01:22.914Z,2.17
2023-07-29T02:03:55.957Z,1.90
2023-07-29T02:06:23.003Z,1.42
2023-07-29T02:08:49.665Z,1.90
2023-07-29T02:11:16.341Z,2.08
2023-07-29T02:13:43.130Z,2.15
2023-07-29T02:16:09.962Z,1.80
2023-07-29T02:18:36.567Z,1.83
2023-07-29T02:21:03.259Z,1.35
2023-07-29T02:23:30.591Z,1.48
2023-07-29T02:25:57.216Z,1.75
2023-07-29T02:28:23.960Z,1.50
2023-07-29T02:31:12.010Z,1.60
2023-07-29T02:33:39.261Z,1.77
2023-07-29T02:36:06.304Z,1.70
2023-07-29T02:38:32.971Z,2.80
2023-07-29T02:40:59.809Z,2.00
2023-07-29T02:43:26.504Z,1.67
2023-07-29T02:45:53.116Z,2.08
2023-07-29T02:48:19.898Z,1.30
2023-07-29T02:50:46.700Z,1.67
2023-07-29T02:53:13.405Z,1.65
2023-07-29T02:55:43.002Z,4.28
2023-07-29T02:58:09.736Z,2.40
2023-07-29T03:00:36.792Z,2.38
2023-07-29T03:03:03.821Z,2.53
2023-07-29T03:05:30.796Z,2.08
2023-07-29T03:07:59.175Z,2.35
2023-07-29T03:10:26.367Z,1.80
2023-07-29T03:12:56.453Z,2.55
2023-07-29T03:15:27.159Z,2.80
2023-07-29T03:17:54.176Z,2.53
2023-07-29T03:20:21.497Z,3.20
2023-07-29T03:22:48.363Z,4.57
2023-07-29T03:25:15.157Z,3.22
2023-07-29T03:27:42.291Z,3.47
2023-07-29T03:30:09.306Z,3.20
2023-07-29T03:32:36.063Z,3.05
2023-07-29T03:35:03.210Z,1.70
2023-07-29T03:37:29.905Z,2.80
2023-07-29T03:39:56.601Z,2.65
2023-07-29T03:42:23.490Z,2.78
2023-07-29T03:44:50.134Z,1.80
2023-07-29T03:47:16.762Z,2.08
2023-07-29T03:49:43.510Z,2.80
2023-07-29T03:52:10.364Z,2.80
2023-07-29T03:54:37.162Z,1.95
2023-07-29T03:57:04.082Z,2.17
2023-07-29T03:59:30.766Z,3.53
2023-07-29T04:01:57.684Z,2.30
2023-07-29T04:04:24.966Z,2.40
2023-07-29T04:06:51.779Z,1.85
2023-07-29T04:09:19.041Z,2.38
2023-07-29T04:11:45.742Z,1.80
2023-07-29T04:14:12.400Z,2.15
2023-07-29T04:16:39.398Z,1.75
2023-07-29T04:19:06.339Z,1.58
2023-07-29T04:21:33.113Z,2.30
2023-07-29T04:23:59.928Z,1.60
2023-07-29T04:26:26.577Z,2.20
2023-07-29T04:28:53.500Z,2.53
2023-07-29T04:31:20.282Z,2.78
2023-07-29T04:33:46.987Z,2.20
2023-07-29T04:36:13.771Z,2.83
2023-07-29T04:38:40.671Z,3.47
2023-07-29T04:41:08.687Z,2.53
2023-07-29T04:43:35.572Z,1.48
2023-07-29T04:46:02.261Z,2.42
2023-07-29T04:48:28.992Z,2.03
2023-07-29T04:50:55.698Z,5.40
2023-07-29T04:53:22.493Z,3.50
2023-07-29T04:55:49.204Z,1.83
2023-07-29T04:58:15.867Z,2.90
2023-07-29T05:00:42.885Z,2.45
2023-07-29T05:03:09.728Z,3.50
2023-07-29T05:05:36.475Z,2.80
2023-07-29T05:08:03.580Z,3.22
2023-07-29T05:10:30.308Z,2.63
2023-07-29T05:12:57.230Z,2.75
2023-07-29T05:15:23.918Z,2.42
2023-07-29T05:17:50.607Z,3.55
2023-07-29T05:20:17.293Z,4.45
2023-07-29T05:22:44.123Z,2.55
2023-07-29T05:25:10.751Z,3.08
2023-07-29T05:27:37.660Z,2.28
2023-07-29T05:30:05.107Z,2.33
2023-07-29T05:32:31.835Z,2.13
2023-07-29T05:34:58.606Z,2.88
2023-07-29T05:37:25.368Z,3.53
2023-07-29T05:39:52.453Z,2.55
2023-07-29T05:42:19.098Z,2.50
2023-07-29T05:44:46.522Z,3.25
2023-07-29T05:47:13.556Z,4.22
2023-07-29T05:49:40.211Z,2.30
2023-07-29T05:52:07.256Z,2.47
2023-07-29T05:54:34.318Z,3.03
2023-07-29T05:57:00.987Z,2.67
2023-07-29T05:59:30.285Z,3.38
2023-07-29T06:01:57.465Z,1.98
2023-07-29T06:04:24.273Z,2.50
2023-07-29T06:06:51.234Z,3.53
2023-07-29T06:09:17.994Z,2.40
2023-07-29T06:11:45.122Z,1.90
2023-07-29T06:14:11.745Z,3.50
2023-07-29T06:16:38.732Z,2.80
2023-07-29T06:19:05.641Z,2.40
2023-07-29T06:21:32.561Z,2.67
2023-07-29T06:23:59.160Z,3.35
2023-07-29T06:26:25.999Z,3.30
2023-07-29T06:28:52.715Z,3.78
2023-07-29T06:31:19.403Z,2.40
2023-07-29T06:33:46.284Z,3.00
2023-07-29T06:36:13.214Z,2.55
2023-07-29T06:38:39.900Z,3.15
2023-07-29T06:41:06.735Z,2.75
2023-07-29T06:43:33.382Z,2.85
2023-07-29T06:46:00.497Z,4.30
2023-07-29T06:48:27.188Z,3.58
2023-07-29T06:50:53.918Z,3.13
2023-07-29T06:53:20.683Z,3.92
2023-07-29T06:55:47.650Z,4.18
2023-07-29T06:58:14.332Z,4.40
2023-07-29T07:00:41.183Z,3.50
2023-07-29T07:03:08.043Z,2.42
2023-07-29T07:05:34.927Z,3.08
2023-07-29T07:08:01.631Z,3.13
2023-07-29T07:10:28.353Z,2.60
2023-07-29T07:12:55.002Z,3.17
2023-07-29T07:15:21.638Z,2.55
2023-07-29T07:17:48.535Z,3.03
2023-07-29T07:20:15.291Z,3.97
2023-07-29T07:22:41.959Z,3.35
2023-07-29T07:25:09.173Z,2.65
2023-07-29T07:27:37.848Z,4.50
2023-07-29T07:30:05.063Z,3.70
2023-07-29T07:32:31.854Z,3.00
2023-07-29T07:34:58.541Z,2.83
2023-07-29T07:37:25.389Z,3.03
2023-07-29T07:39:52.058Z,3.20
2023-07-29T07:42:19.154Z,2.83
2023-07-29T07:44:45.922Z,2.03
2023-07-29T07:47:12.727Z,3.85
2023-07-29T07:49:39.385Z,2.83
2023-07-29T07:52:06.707Z,3.25
2023-07-29T07:54:33.464Z,2.92
2023-07-29T07:57:00.121Z,2.85
2023-07-29T07:59:26.799Z,2.88
2023-07-29T08:01:53.671Z,3.47
2023-07-29T08:04:20.554Z,3.40
2023-07-29T08:06:47.404Z,4.40
2023-07-29T08:09:14.210Z,3.50
2023-07-29T08:11:40.915Z,3.88
2023-07-29T08:14:07.589Z,4.38
2023-07-29T08:16:34.468Z,4.85
2023-07-29T08:19:01.213Z,3.80
2023-07-29T08:21:28.436Z,4.32
2023-07-29T08:23:55.116Z,3.67
2023-07-29T08:26:22.372Z,5.22
2023-07-29T08:28:49.725Z,4.20
2023-07-29T08:31:16.519Z,3.28
2023-07-29T08:33:43.328Z,2.83
2023-07-29T08:36:10.206Z,3.10
2023-07-29T08:38:36.826Z,3.30
2023-07-29T08:41:06.474Z,2.95
2023-07-29T08:43:34.243Z,2.70
2023-07-29T08:46:02.270Z,3.00
2023-07-29T08:48:41.759Z,2.95
2023-07-29T08:51:10.642Z,2.20
2023-07-29T08:53:38.332Z,1.83
2023-07-29T08:56:06.477Z,2.70
2023-07-29T08:58:33.510Z,2.47
2023-07-29T09:01:01.437Z,1.75
2023-07-29T09:03:28.329Z,2.35
2023-07-29T09:05:56.711Z,1.40
2023-07-29T09:08:25.077Z,1.25
2023-07-29T09:10:51.813Z,1.50
2023-07-29T09:13:18.529Z,1.70
2023-07-29T09:15:45.305Z,1.92
2023-07-29T09:18:15.921Z,1.70
2023-07-29T09:20:42.943Z,2.42
2023-07-29T09:23:11.687Z,1.50
2023-07-29T09:25:40.565Z,2.10
2023-07-29T09:28:12.270Z,2.17
2023-07-29T09:30:40.852Z,2.42
2023-07-29T09:33:08.648Z,1.83
2023-07-29T09:35:37.031Z,2.17
2023-07-29T09:38:08.590Z,2.05
2023-07-29T09:40:42.158Z,2.00
2023-07-29T09:43:11.030Z,2.05
2023-07-29T09:45:38.668Z,1.50
2023-07-29T09:48:10.542Z,2.33
2023-07-29T09:50:37.984Z,2.05
2023-07-29T09:53:04.749Z,1.60
2023-07-29T09:55:34.709Z,2.03
2023-07-29T09:58:03.277Z,2.17
2023-07-29T10:00:30.975Z,1.70
2023-07-29T10:02:59.639Z,1.75
2023-07-29T10:05:30.806Z,2.22
2023-07-29T10:07:58.206Z,2.00
2023-07-29T10:10:25.617Z,1.58
2023-07-29T10:12:54.280Z,2.30
2023-07-29T10:15:21.885Z,3.72
2023-07-29T10:17:51.285Z,1.65
2023-07-29T10:20:18.406Z,2.15
2023-07-29T10:22:48.407Z,1.88
2023-07-29T10:25:25.770Z,2.42
2023-07-29T10:28:05.670Z,2.53
2023-07-29T10:30:33.129Z,2.00
2023-07-29T10:33:03.433Z,2.03
2023-07-29T10:35:30.843Z,2.00
2023-07-29T10:37:58.349Z,2.22
2023-07-29T10:40:25.169Z,2.30
2023-07-29T10:43:11.648Z,3.05
2023-07-29T10:45:43.303Z,1.95
2023-07-29T10:48:14.270Z,1.60
2023-07-29T10:50:41.010Z,2.58
2023-07-29T10:53:07.890Z,1.80
2023-07-29T10:55:38.024Z,1.67
2023-07-29T10:58:18.178Z,1.90
2023-07-29T11:00:46.679Z,2.38
2023-07-29T11:03:18.045Z,2.20
2023-07-29T11:05:47.511Z,1.77
2023-07-29T11:08:31.760Z,2.10
2023-07-29T11:11:03.761Z,1.85
2023-07-29T11:13:31.927Z,1.83
2023-07-29T11:16:01.052Z,2.85
2023-07-29T11:18:35.198Z,1.58
2023-07-29T11:21:04.512Z,0.40
2023-07-29T11:23:34.436Z,1.40
2023-07-29T11:26:01.662Z,1.63
2023-07-29T11:28:29.646Z,2.85
2023-07-29T11:30:57.746Z,1.55
2023-07-29T11:33:27.100Z,2.25
2023-07-29T11:35:54.316Z,1.48
2023-07-29T11:38:22.731Z,1.88
2023-07-29T11:41:07.024Z,1.70
2023-07-29T11:43:37.408Z,2.58
2023-07-29T11:46:04.653Z,1.55
2023-07-29T11:48:34.912Z,1.50
2023-07-29T11:51:03.508Z,1.20
2023-07-29T11:53:34.423Z,2.22
2023-07-29T11:56:02.784Z,2.30
2023-07-29T11:58:29.846Z,1.25
2023-07-29T12:00:57.148Z,2.40
2023-07-29T12:03:24.845Z,2.50
2023-07-29T12:05:51.844Z,2.85
2023-07-29T12:08:19.078Z,3.08
2023-07-29T12:10:46.004Z,2.38
2023-07-29T12:13:12.813Z,0.20
2023-07-29T12:15:40.842Z,1.23
2023-07-29T12:18:08.267Z,0.20
2023-07-29T12:20:35.584Z,0.30
2023-07-29T12:23:03.933Z,0.20
2023-07-29T12:25:31.195Z,0.25
2023-07-29T12:28:03.377Z,0.03
2023-07-29T12:30:30.037Z,0.32
2023-07-29T12:32:57.061Z,0.28
2023-07-29T12:35:23.981Z,0.30
2023-07-29T12:38:03.277Z,0.10
2023-07-29T12:40:30.332Z,0.50
2023-07-29T12:42:57.474Z,0.50
2023-07-29T12:57:51.474Z,0.10
2023-07-29T13:00:18.589Z,0.13
2023-07-29T13:02:45.399Z,1.30
2023-07-29T13:05:13.103Z,0.15
2023-07-29T13:07:43.832Z,0.38
2023-07-29T13:10:11.687Z,0.20
2023-07-29T13:12:38.732Z,0.10
2023-07-29T13:15:06.767Z,0.10
2023-07-29T13:17:34.308Z,0.10
2023-07-29T13:20:01.004Z,0.30
2023-07-29T13:22:27.923Z,0.25
2023-07-29T13:24:54.613Z,0.77
2023-07-29T13:27:22.783Z,0.30
2023-07-29T13:29:51.297Z,0.35
2023-07-29T13:32:17.945Z,0.25
2023-07-29T13:34:44.734Z,0.32
2023-07-29T13:37:11.457Z,0.10
2023-07-29T13:39:38.415Z,0.00
2023-07-29T13:42:05.283Z,0.00
2023-07-29T13:44:32.011Z,0.30
2023-07-29T13:46:58.842Z,0.05
2023-07-29T13:49:25.506Z,0.10
2023-07-29T13:51:52.163Z,0.13
2023-07-29T13:54:18.899Z,0.20
2023-07-29T13:56:45.586Z,0.20
2023-07-29T13:59:12.215Z,0.20
2023-07-29T14:01:38.927Z,0.28
2023-07-29T14:04:05.658Z,0.38
2023-07-29T14:06:45.069Z,0.10
2023-07-29T14:09:12.851Z,0.45
2023-07-29T14:11:39.659Z,0.10
2023-07-29T14:14:07.635Z,0.10
2023-07-29T14:16:34.661Z,0.10
2023-07-29T14:19:01.738Z,0.22
2023-07-29T14:21:28.435Z,0.55
2023-07-29T14:23:55.204Z,0.25
2023-07-29T14:26:22.077Z,0.20
2023-07-29T14:28:48.737Z,0.10
2023-07-29T14:31:15.657Z,0.20
2023-07-29T14:33:42.450Z,0.40
2023-07-29T14:36:09.380Z,0.35
2023-07-29T14:38:37.388Z,0.35
2023-07-29T14:41:05.515Z,0.50
2023-07-29T14:43:32.167Z,0.22
2023-07-29T14:45:59.334Z,0.70
2023-07-29T14:48:26.412Z,0.68
2023-07-29T14:50:53.177Z,0.13
2023-07-29T14:53:20.459Z,0.10
2023-07-29T14:55:47.347Z,0.47
2023-07-29T14:58:14.008Z,0.30
2023-07-29T15:00:41.113Z,0.10
2023-07-29T15:03:08.928Z,0.10
2023-07-29T15:05:36.062Z,0.55
2023-07-29T15:08:03.236Z,0.17
2023-07-29T15:10:30.546Z,1.15
2023-07-29T15:12:57.304Z,0.35
2023-07-29T15:15:25.037Z,0.60
2023-07-29T15:17:51.845Z,0.38
2023-07-29T15:20:18.888Z,0.30
2023-07-29T15:22:46.578Z,0.30
2023-07-29T15:25:13.374Z,0.17
2023-07-29T15:27:40.673Z,0.20
2023-07-29T15:30:08.338Z,0.13
2023-07-29T15:32:35.431Z,0.10
2023-07-29T15:35:02.534Z,0.60
2023-07-29T15:37:29.397Z,0.10
2023-07-29T15:39:56.463Z,0.95
2023-07-29T15:42:24.353Z,0.30
2023-07-29T15:44:51.375Z,0.20
2023-07-29T15:47:19.938Z,0.30
2023-07-29T15:49:47.370Z,0.10
2023-07-29T15:52:16.256Z,0.20
2023-07-29T15:54:44.125Z,0.20
2023-07-29T15:57:11.558Z,0.45
2023-07-29T15:59:38.803Z,0.43
2023-07-29T16:02:06.030Z,0.30
2023-07-29T16:04:32.799Z,0.30
2023-07-29T16:06:59.549Z,0.00
2023-07-29T16:09:27.654Z,0.00
2023-07-29T16:11:54.981Z,0.17
2023-07-29T16:14:22.287Z,0.20
2023-07-29T16:16:49.503Z,0.60
2023-07-29T16:19:25.711Z,0.30
2023-07-29T16:21:53.071Z,0.22
2023-07-29T16:24:20.452Z,0.10
2023-07-29T16:26:47.596Z,1.58
2023-07-29T16:29:14.601Z,0.40
2023-07-29T16:31:41.577Z,0.30
2023-07-29T16:34:08.366Z,0.40
2023-07-29T16:36:35.662Z,0.28
2023-07-29T16:39:02.579Z,0.40
2023-07-29T16:42:01.808Z,0.75
2023-07-29T16:44:16.068Z,0.10
2023-07-29T16:46:43.189Z,0.38
2023-07-29T16:49:18.637Z,0.82
2023-07-29T16:51:50.466Z,0.30
2023-07-29T16:54:19.279Z,0.35
2023-07-29T16:56:48.904Z,0.40
2023-07-29T16:59:16.099Z,0.30
2023-07-29T17:01:42.987Z,0.20
2023-07-29T17:04:09.925Z,0.30
2023-07-29T17:06:37.010Z,0.20
2023-07-29T17:09:04.259Z,0.20
2023-07-29T17:11:31.089Z,0.52
2023-07-29T17:13:58.099Z,0.17
2023-07-29T17:16:25.597Z,0.57
2023-07-29T17:18:52.376Z,2.80
2023-07-29T17:21:19.483Z,0.28
2023-07-29T17:23:46.188Z,0.10
2023-07-29T17:26:13.239Z,0.60
2023-07-29T17:28:40.001Z,0.98
2023-07-29T17:31:06.993Z,0.10
2023-07-29T17:33:33.862Z,1.75
2023-07-29T17:36:00.756Z,0.03
2023-07-29T17:38:27.447Z,0.47
2023-07-29T17:40:56.732Z,0.57
2023-07-29T17:43:24.187Z,0.75
2023-07-29T17:45:50.894Z,0.10
2023-07-29T17:48:17.830Z,0.40
2023-07-29T17:50:44.660Z,0.40
2023-07-29T17:53:11.348Z,0.30
2023-07-29T17:55:39.074Z,0.70
2023-07-29T17:58:08.876Z,0.95
2023-07-29T18:00:35.636Z,0.60
2023-07-29T18:03:02.539Z,0.50
2023-07-29T18:05:29.673Z,0.20
2023-07-29T18:07:56.360Z,0.30
2023-07-29T18:10:25.074Z,0.25
2023-07-29T18:12:52.006Z,0.68
2023-07-29T18:15:18.812Z,1.20
2023-07-29T18:17:45.570Z,1.25
2023-07-29T18:20:12.484Z,0.35
2023-07-29T18:22:39.168Z,0.55
2023-07-29T18:25:06.580Z,0.60
2023-07-29T18:27:33.358Z,0.35
2023-07-29T18:30:00.004Z,0.88
2023-07-29T18:32:26.677Z,1.13
2023-07-29T18:34:53.506Z,0.40
2023-07-29T18:37:20.317Z,1.50
2023-07-29T18:39:46.978Z,0.43
2023-07-29T18:42:14.363Z,1.80
2023-07-29T18:44:41.094Z,2.30
2023-07-29T18:47:09.245Z,1.88
2023-07-29T18:49:36.221Z,1.40
2023-07-29T18:52:02.879Z,1.08
2023-07-29T18:54:32.533Z,1.30
2023-07-29T18:56:59.209Z,1.88
2023-07-29T18:59:25.835Z,1.92
2023-07-29T19:01:52.807Z,1.83
2023-07-29T19:04:19.782Z,1.73
2023-07-29T19:06:46.610Z,1.75
2023-07-29T19:09:13.474Z,1.52
2023-07-29T19:11:40.244Z,1.75
2023-07-29T19:14:07.355Z,1.63
2023-07-29T19:16:34.267Z,1.35
2023-07-29T19:19:01.185Z,1.10
2023-07-29T19:21:27.851Z,1.70
2023-07-29T19:23:54.456Z,1.70
2023-07-29T19:26:24.060Z,1.40
2023-07-29T19:28:52.091Z,2.70
2023-07-29T19:31:19.117Z,1.98
2023-07-29T19:33:46.379Z,2.28
2023-07-29T19:36:13.865Z,1.80
2023-07-29T19:38:40.520Z,1.40
2023-07-29T19:41:07.536Z,1.63
2023-07-29T19:43:34.194Z,1.95
2023-07-29T19:48:34.053Z,1.58
2023-07-29T19:51:00.864Z,1.70
2023-07-29T19:53:28.075Z,1.75
2023-07-29T19:55:54.970Z,1.33
2023-07-29T19:58:21.736Z,1.60
2023-07-29T20:00:52.017Z,1.10
2023-07-29T20:03:19.619Z,1.48
2023-07-29T20:05:47.740Z,1.17
2023-07-29T20:08:14.812Z,1.17
2023-07-29T20:10:41.843Z,2.78
2023-07-29T20:13:08.688Z,2.00
2023-07-29T20:15:35.670Z,1.98
2023-07-29T20:18:02.427Z,1.00
2023-07-29T20:20:29.194Z,1.83
2023-07-29T20:22:56.026Z,1.10
2023-07-29T20:25:22.753Z,2.05
2023-07-29T20:27:49.620Z,1.55
2023-07-29T20:30:16.322Z,2.53
2023-07-29T20:32:43.068Z,2.00
2023-07-29T20:35:10.099Z,2.70
2023-07-29T20:37:36.796Z,0.98
2023-07-29T20:40:04.932Z,1.15
2023-07-29T20:42:31.659Z,2.65
2023-07-29T20:44:58.408Z,1.40
2023-07-29T20:47:25.497Z,0.68
2023-07-29T20:49:52.184Z,1.98
2023-07-29T20:52:18.913Z,1.45
2023-07-29T20:54:45.705Z,1.95
2023-07-29T20:57:12.547Z,1.60
2023-07-29T20:59:39.408Z,1.20
2023-07-29T21:02:06.327Z,1.40
2023-07-29T21:04:33.582Z,2.97
2023-07-29T21:07:01.225Z,2.08
2023-07-29T21:09:28.104Z,1.35
2023-07-29T21:11:58.159Z,1.35
2023-07-29T21:14:24.909Z,1.77
2023-07-29T21:16:51.943Z,1.45
2023-07-29T21:19:19.291Z,1.00
2023-07-29T21:21:47.690Z,0.90
2023-07-29T21:24:14.996Z,0.45
2023-07-29T21:26:41.801Z,1.08
2023-07-29T21:29:08.850Z,1.25
2023-07-29T21:31:36.479Z,1.33
2023-07-29T21:34:03.585Z,2.90
2023-07-29T21:36:30.210Z,0.95
2023-07-29T21:38:58.694Z,1.30
2023-07-29T21:41:25.877Z,1.15
2023-07-29T21:43:52.991Z,1.95
2023-07-29T21:46:19.901Z,1.27
2023-07-29T21:48:47.589Z,2.08
2023-07-29T21:51:14.556Z,2.20
2023-07-29T21:53:41.482Z,2.25
2023-07-29T21:56:08.405Z,2.83
2023-07-29T21:58:35.344Z,1.50
2023-07-29T22:01:03.037Z,2.45
2023-07-29T22:03:29.932Z,2.05
2023-07-29T22:06:03.441Z,1.88
2023-07-29T22:08:30.158Z,1.65
2023-07-29T22:11:05.530Z,1.13
2023-07-29T22:13:35.128Z,1.67
2023-07-29T22:16:05.397Z,1.35
2023-07-29T22:18:32.765Z,1.33
2023-07-29T22:21:00.992Z,3.08
2023-07-29T22:23:27.728Z,1.83
2023-07-29T22:25:59.594Z,3.00
2023-07-29T22:28:26.883Z,2.15
2023-07-29T22:30:54.272Z,2.00
2023-07-29T22:33:22.605Z,1.83
2023-07-29T22:35:49.564Z,1.42
2023-07-29T22:38:16.502Z,1.48
2023-07-29T22:40:43.489Z,2.03
2023-07-29T22:43:10.165Z,2.80
2023-07-29T22:45:37.072Z,2.20
2023-07-29T22:48:03.959Z,1.80
2023-07-29T22:50:30.797Z,2.13
2023-07-29T22:52:57.570Z,1.90
2023-07-29T22:55:24.888Z,2.15
2023-07-29T22:57:51.760Z,1.80
2023-07-29T23:00:18.450Z,1.73
2023-07-29T23:02:45.525Z,1.55
2023-07-29T23:05:12.459Z,1.98
2023-07-29T23:07:39.830Z,1.50
2023-07-29T23:10:08.915Z,2.22
2023-07-29T23:12:36.522Z,1.15
2023-07-29T23:15:03.679Z,1.70
2023-07-29T23:17:30.438Z,2.05
2023-07-29T23:19:57.227Z,1.45
2023-07-29T23:22:24.601Z,1.92
2023-07-29T23:24:51.508Z,1.85
2023-07-29T23:27:18.252Z,1.92
2023-07-29T23:29:44.954Z,1.42
2023-07-29T23:32:11.714Z,2.00
2023-07-29T23:34:38.496Z,2.50
2023-07-29T23:37:05.658Z,1.80
2023-07-29T23:39:32.477Z,2.05
2023-07-29T23:41:59.149Z,2.65
2023-07-29T23:44:25.835Z,2.20
2023-07-29T23:46:52.615Z,1.73
2023-07-29T23:49:19.285Z,1.92
2023-07-29T23:51:45.976Z,1.85
2023-07-29T23:54:12.653Z,2.85
2023-07-29T23:56:39.410Z,0.90
2023-07-29T23:59:06.363Z,2.13
